createdAt,value
2019-05-29T00:01:40.653Z,95784.49
2019-05-29T00:04:08.169Z,95789.08
2019-05-29T00:06:37.097Z,95787.50
2019-05-29T00:09:04.165Z,95784.74
2019-05-29T00:11:31.194Z,95793.87
2019-05-29T00:13:58.241Z,95794.86
2019-05-29T00:16:25.281Z,95788.66
2019-05-29T00:18:52.326Z,95793.56
2019-05-29T00:21:19.362Z,95790.62
2019-05-29T00:23:46.409Z,95798.78
2019-05-29T00:26:14.592Z,95799.09
2019-05-29T00:28:41.677Z,95798.11
2019-05-29T00:31:09.872Z,95797.97
2019-05-29T00:33:37.044Z,95801.23
2019-05-29T00:36:04.252Z,95802.56
2019-05-29T00:38:31.302Z,95804.06
2019-05-29T00:40:58.340Z,95807.18
2019-05-29T00:43:25.556Z,95808.35
2019-05-29T00:45:53.005Z,95808.06
2019-05-29T00:48:20.053Z,95811.50
2019-05-29T00:50:47.102Z,95819.02
2019-05-29T00:53:14.433Z,95820.83
2019-05-29T00:55:42.537Z,95820.02
2019-05-29T00:58:10.733Z,95825.06
2019-05-29T01:00:37.991Z,95821.64
2019-05-29T01:03:05.025Z,95823.48
2019-05-29T01:05:32.075Z,95824.45
2019-05-29T01:07:59.111Z,95822.94
2019-05-29T01:10:26.430Z,95823.92
2019-05-29T01:12:53.497Z,95831.95
2019-05-29T01:15:21.519Z,95829.35
2019-05-29T01:17:48.550Z,95828.53
2019-05-29T01:20:15.990Z,95830.17
2019-05-29T01:22:44.081Z,95836.38
2019-05-29T01:25:12.417Z,95840.28
2019-05-29T01:27:39.861Z,95835.56
2019-05-29T01:30:06.914Z,95832.78
2019-05-29T01:32:33.945Z,95833.11
2019-05-29T01:35:00.994Z,95835.88
2019-05-29T01:37:28.999Z,95830.77
2019-05-29T01:39:56.047Z,95832.37
2019-05-29T01:42:23.568Z,95834.46
2019-05-29T01:45:06.649Z,95829.87
2019-05-29T01:47:19.641Z,95836.53
2019-05-29T01:49:46.933Z,95845.16
2019-05-29T01:52:13.965Z,95848.09
2019-05-29T01:54:41.017Z,95854.77
2019-05-29T01:57:08.323Z,95854.94
2019-05-29T01:59:35.619Z,95856.56
2019-05-29T02:02:02.935Z,95853.63
2019-05-29T02:04:30.293Z,95861.95
2019-05-29T02:06:57.316Z,95864.22
2019-05-29T02:09:24.619Z,95866.98
2019-05-29T02:11:51.961Z,95869.59
2019-05-29T02:14:20.455Z,95868.44
2019-05-29T02:16:47.781Z,95870.87
2019-05-29T02:19:15.721Z,95870.50
2019-05-29T02:21:43.033Z,95876.69
2019-05-29T02:24:10.088Z,95876.85
2019-05-29T02:26:37.362Z,95878.80
2019-05-29T02:29:04.391Z,95880.75
2019-05-29T02:31:31.435Z,95873.91
2019-05-29T02:33:58.712Z,95886.94
2019-05-29T02:36:27.131Z,95889.55
2019-05-29T02:38:54.732Z,95886.13
2019-05-29T02:41:24.202Z,95893.64
2019-05-29T02:43:51.018Z,95904.42
2019-05-29T02:46:19.578Z,95909.16
2019-05-29T02:48:46.892Z,95911.50
2019-05-29T02:51:13.944Z,95907.77
2019-05-29T02:53:40.960Z,95910.89
2019-05-29T02:56:08.271Z,95913.36
2019-05-29T02:58:35.292Z,95916.63
2019-05-29T03:01:02.581Z,95926.09
2019-05-29T03:03:34.494Z,95921.70
2019-05-29T03:05:58.866Z,95928.39
2019-05-29T03:08:27.083Z,95922.22
2019-05-29T03:10:55.130Z,95933.64
2019-05-29T03:13:23.151Z,95932.01
2019-05-29T03:16:08.335Z,95931.67
2019-05-29T03:18:19.338Z,95938.19
2019-05-29T03:20:47.617Z,95942.09
2019-05-29T03:23:14.976Z,95947.31
2019-05-29T03:25:42.324Z,95945.52
2019-05-29T03:28:09.356Z,95951.39
2019-05-29T03:30:44.255Z,95958.56
2019-05-29T03:33:05.146Z,95958.89
2019-05-29T03:35:42.077Z,95968.84
2019-05-29T03:38:01.457Z,95968.69
2019-05-29T03:40:29.501Z,95972.92
2019-05-29T03:42:57.824Z,95975.38
2019-05-29T03:45:26.741Z,95983.69
2019-05-29T03:47:53.913Z,95980.42
2019-05-29T03:50:21.309Z,95986.28
2019-05-29T03:52:48.670Z,95992.47
2019-05-29T03:55:16.019Z,95994.09
2019-05-29T03:57:43.083Z,95999.13
2019-05-29T04:00:10.125Z,95997.66
2019-05-29T04:02:38.439Z,96006.62
2019-05-29T04:05:05.950Z,96014.58
2019-05-29T04:07:34.058Z,96010.98
2019-05-29T04:10:02.296Z,96015.53
2019-05-29T04:12:31.301Z,96017.96
2019-05-29T04:14:58.850Z,96024.64
2019-05-29T04:17:27.305Z,96024.47
2019-05-29T04:19:54.332Z,96024.45
2019-05-29T04:22:21.631Z,96031.13
2019-05-29T04:24:49.006Z,96042.70
2019-05-29T04:27:16.346Z,96033.55
2019-05-29T04:29:43.723Z,96036.63
2019-05-29T04:32:10.837Z,96043.92
2019-05-29T04:34:39.811Z,96041.77
2019-05-29T04:37:07.632Z,96048.09
2019-05-29T04:39:34.719Z,96053.45
2019-05-29T04:42:01.766Z,96060.16
2019-05-29T04:44:30.708Z,96056.98
2019-05-29T04:47:10.090Z,96054.84
2019-05-29T04:49:29.023Z,96063.34
2019-05-29T04:51:56.376Z,96068.52
2019-05-29T04:54:23.701Z,96071.77
2019-05-29T04:56:51.094Z,96078.95
2019-05-29T04:59:18.441Z,96081.83
2019-05-29T05:01:45.768Z,96082.41
2019-05-29T05:04:13.120Z,96084.46
2019-05-29T05:06:40.422Z,96088.11
2019-05-29T05:09:07.729Z,96096.46
2019-05-29T05:11:35.466Z,96095.89
2019-05-29T05:14:02.590Z,96102.72
2019-05-29T05:16:29.777Z,96102.45
2019-05-29T05:18:57.148Z,96107.31
2019-05-29T05:21:24.193Z,96107.22
2019-05-29T05:23:51.586Z,96106.16
2019-05-29T05:26:18.625Z,96112.42
2019-05-29T05:28:46.539Z,96117.06
2019-05-29T05:31:15.378Z,96116.39
2019-05-29T05:33:42.715Z,96115.81
2019-05-29T05:36:09.749Z,96122.69
2019-05-29T05:38:37.117Z,96123.75
2019-05-29T05:41:04.489Z,96122.92
2019-05-29T05:43:32.843Z,96125.78
2019-05-29T05:46:00.115Z,96122.41
2019-05-29T05:48:27.164Z,96133.48
2019-05-29T05:50:54.202Z,96130.75
2019-05-29T05:53:21.557Z,96133.88
2019-05-29T05:55:48.937Z,96140.89
2019-05-29T05:58:15.991Z,96133.06
2019-05-29T06:00:43.315Z,96140.04
2019-05-29T06:03:10.629Z,96142.79
2019-05-29T06:05:38.321Z,96146.91
2019-05-29T06:08:05.358Z,96151.27
2019-05-29T06:10:34.065Z,96150.58
2019-05-29T06:13:01.521Z,96152.16
2019-05-29T06:15:28.876Z,96156.36
2019-05-29T06:18:10.425Z,96153.32
2019-05-29T06:20:26.454Z,96158.55
2019-05-29T06:22:53.810Z,96157.94
2019-05-29T06:25:21.194Z,96164.35
2019-05-29T06:27:48.538Z,96171.30
2019-05-29T06:30:15.896Z,96172.79
2019-05-29T06:32:43.610Z,96172.04
2019-05-29T06:35:10.996Z,96177.97
2019-05-29T06:37:39.504Z,96189.95
2019-05-29T06:40:06.677Z,96190.96
2019-05-29T06:42:33.717Z,96197.85
2019-05-29T06:45:00.969Z,96197.68
2019-05-29T06:47:28.451Z,96205.29
2019-05-29T06:49:55.741Z,96198.61
2019-05-29T06:52:23.114Z,96203.00
2019-05-29T06:54:50.451Z,96199.89
2019-05-29T06:57:17.808Z,96203.64
2019-05-29T06:59:45.166Z,96212.00
2019-05-29T07:02:12.206Z,96214.25
2019-05-29T07:04:40.209Z,96217.86
2019-05-29T07:07:07.736Z,96214.58
2019-05-29T07:09:34.790Z,96227.59
2019-05-29T07:12:02.140Z,96225.70
2019-05-29T07:14:29.204Z,96230.59
2019-05-29T07:16:56.569Z,96227.34
2019-05-29T07:19:32.739Z,96229.34
2019-05-29T07:21:53.098Z,96228.64
2019-05-29T07:24:20.460Z,96233.47
2019-05-29T07:26:47.507Z,96233.41
2019-05-29T07:29:15.629Z,96227.61
2019-05-29T07:31:43.044Z,96231.28
2019-05-29T07:34:10.060Z,96234.45
2019-05-29T07:36:37.933Z,96231.44
2019-05-29T07:39:05.061Z,96233.75
2019-05-29T07:41:32.449Z,96240.86
2019-05-29T07:43:59.502Z,96242.83
2019-05-29T07:46:26.538Z,96247.33
2019-05-29T07:48:53.574Z,96253.73
2019-05-29T07:51:20.973Z,96258.71
2019-05-29T07:53:48.763Z,96258.94
2019-05-29T07:56:22.640Z,96258.52
2019-05-29T07:58:56.801Z,96256.98
2019-05-29T08:01:14.130Z,96254.29
2019-05-29T08:03:41.533Z,96261.89
2019-05-29T08:06:08.885Z,96261.52
2019-05-29T08:08:36.224Z,96261.73
2019-05-29T08:11:03.273Z,96265.36
2019-05-29T08:13:30.627Z,96259.02
2019-05-29T08:16:03.080Z,96260.45
2019-05-29T08:18:26.718Z,96264.09
2019-05-29T08:20:54.024Z,96269.39
2019-05-29T08:23:21.061Z,96275.53
2019-05-29T08:25:49.691Z,96284.62
2019-05-29T08:28:18.242Z,96277.47
2019-05-29T08:30:50.341Z,96282.51
2019-05-29T08:33:14.400Z,96288.02
2019-05-29T08:35:41.881Z,96285.80
2019-05-29T08:38:10.325Z,96292.42
2019-05-29T08:40:37.612Z,96289.41
2019-05-29T08:43:04.653Z,96295.97
2019-05-29T08:45:31.999Z,96307.64
2019-05-29T08:47:59.033Z,96302.99
2019-05-29T08:50:27.147Z,96303.42
2019-05-29T08:52:54.177Z,96308.31
2019-05-29T08:55:21.501Z,96303.44
2019-05-29T08:57:48.563Z,96307.39
2019-05-29T09:00:15.904Z,96316.94
2019-05-29T09:02:44.516Z,96312.12
2019-05-29T09:05:12.776Z,96317.17
2019-05-29T09:07:40.121Z,96319.29
2019-05-29T09:10:07.491Z,96318.32
2019-05-29T09:12:34.775Z,96318.34
2019-05-29T09:15:02.054Z,96319.05
2019-05-29T09:17:29.957Z,96321.27
2019-05-29T09:19:57.005Z,96321.86
2019-05-29T09:22:24.053Z,96327.58
2019-05-29T09:24:51.404Z,96331.67
2019-05-29T09:27:19.145Z,96331.05
2019-05-29T09:29:46.368Z,96333.80
2019-05-29T09:32:15.327Z,96330.83
2019-05-29T09:34:42.506Z,96332.81
2019-05-29T09:37:09.816Z,96341.31
2019-05-29T09:39:37.178Z,96338.95
2019-05-29T09:42:04.524Z,96342.67
2019-05-29T09:44:38.932Z,96342.47
2019-05-29T09:47:01.002Z,96346.92
2019-05-29T09:49:28.332Z,96354.12
2019-05-29T09:51:56.160Z,96350.67
2019-05-29T09:54:23.416Z,96351.61
2019-05-29T09:56:50.812Z,96352.92
2019-05-29T09:59:17.853Z,96356.56
2019-05-29T10:01:44.905Z,96366.98
2019-05-29T10:04:11.941Z,96359.88
2019-05-29T10:06:39.304Z,96363.20
2019-05-29T10:09:06.624Z,96364.63
2019-05-29T10:11:33.677Z,96368.62
2019-05-29T10:14:02.361Z,96364.13
2019-05-29T10:16:29.773Z,96365.27
2019-05-29T10:18:58.570Z,96364.60
2019-05-29T10:21:39.175Z,96375.78
2019-05-29T10:23:56.612Z,96381.91
2019-05-29T10:26:23.943Z,96381.44
2019-05-29T10:29:06.825Z,96391.14
2019-05-29T10:31:20.231Z,96391.41
2019-05-29T10:33:48.263Z,96395.30
2019-05-29T10:36:15.656Z,96394.27
2019-05-29T10:38:44.305Z,96396.05
2019-05-29T10:41:11.802Z,96395.36
2019-05-29T10:43:39.174Z,96392.57
2019-05-29T10:46:06.519Z,96396.44
2019-05-29T10:48:33.595Z,96391.75
2019-05-29T10:51:00.912Z,96393.63
2019-05-29T10:53:27.988Z,96393.24
2019-05-29T10:55:55.089Z,96394.09
2019-05-29T10:58:23.146Z,96393.39
2019-05-29T11:00:51.224Z,96393.69
2019-05-29T11:03:18.739Z,96395.86
2019-05-29T11:05:47.402Z,96399.73
2019-05-29T11:08:15.881Z,96395.73
2019-05-29T11:10:43.240Z,96397.66
2019-05-29T11:13:10.593Z,96397.31
2019-05-29T11:15:37.626Z,96405.51
2019-05-29T11:18:05.005Z,96395.81
2019-05-29T11:20:32.370Z,96393.64
2019-05-29T11:22:59.421Z,96393.31
2019-05-29T11:25:27.922Z,96393.39
2019-05-29T11:27:56.570Z,96394.23
2019-05-29T11:30:23.861Z,96400.67
2019-05-29T11:32:52.710Z,96400.27
2019-05-29T11:35:19.661Z,96398.08
2019-05-29T11:37:47.009Z,96395.64
2019-05-29T11:40:14.056Z,96395.95
2019-05-29T11:42:41.279Z,96398.63
2019-05-29T11:45:08.316Z,96409.19
2019-05-29T11:47:35.369Z,96412.45
2019-05-29T11:50:16.649Z,96415.05
2019-05-29T11:52:42.275Z,96402.77
2019-05-29T11:55:04.757Z,96415.95
2019-05-29T11:57:29.557Z,96412.41
2019-05-29T12:00:00.112Z,96413.16
2019-05-29T12:02:25.330Z,96411.26
2019-05-29T12:04:53.117Z,96414.97
2019-05-29T12:07:20.525Z,96421.72
2019-05-29T12:09:47.589Z,96415.28
2019-05-29T12:12:16.022Z,96415.86
2019-05-29T12:14:58.966Z,96414.73
2019-05-29T12:17:12.147Z,96413.43
2019-05-29T12:19:39.205Z,96426.24
2019-05-29T12:22:06.241Z,96416.05
2019-05-29T12:24:33.294Z,96424.20
2019-05-29T12:27:00.661Z,96416.50
2019-05-29T12:29:28.125Z,96422.44
2019-05-29T12:31:57.073Z,96417.30
2019-05-29T12:34:24.472Z,96423.59
2019-05-29T12:36:53.244Z,96425.25
2019-05-29T12:39:20.759Z,96420.16
2019-05-29T12:41:47.772Z,96423.18
2019-05-29T12:44:15.127Z,96423.49
2019-05-29T12:46:42.161Z,96426.94
2019-05-29T12:49:10.448Z,96424.30
2019-05-29T12:51:37.867Z,96416.61
2019-05-29T12:54:05.259Z,96419.64
2019-05-29T12:56:32.480Z,96420.06
2019-05-29T12:59:00.548Z,96417.98
2019-05-29T13:01:28.063Z,96420.37
2019-05-29T13:03:56.675Z,96424.81
2019-05-29T13:06:24.081Z,96435.81
2019-05-29T13:08:51.437Z,96442.99
2019-05-29T13:11:18.815Z,96446.59
2019-05-29T13:13:46.157Z,96445.52
2019-05-29T13:16:13.190Z,96447.30
2019-05-29T13:18:40.555Z,96447.41
2019-05-29T13:21:07.905Z,96455.66
2019-05-29T13:23:44.767Z,96454.30
2019-05-29T13:26:04.038Z,96461.17
2019-05-29T13:28:31.061Z,96456.67
2019-05-29T13:30:59.683Z,96462.77
2019-05-29T13:33:26.875Z,96462.28
2019-05-29T13:35:54.212Z,96463.38
2019-05-29T13:38:21.248Z,96465.37
2019-05-29T13:40:48.302Z,96461.52
2019-05-29T13:43:16.169Z,96467.39
2019-05-29T13:45:43.608Z,96464.14
2019-05-29T13:48:10.964Z,96461.83
2019-05-29T13:50:38.507Z,96461.22
2019-05-29T13:53:05.881Z,96462.46
2019-05-29T13:55:32.965Z,96463.70
2019-05-29T13:58:00.139Z,96462.95
2019-05-29T14:00:35.242Z,96465.63
2019-05-29T14:02:55.917Z,96462.30
2019-05-29T14:05:23.233Z,96461.92
2019-05-29T14:07:50.280Z,96463.55
2019-05-29T14:10:17.673Z,96466.61
2019-05-29T14:12:44.717Z,96461.22
2019-05-29T14:15:12.442Z,96465.25
2019-05-29T14:17:39.944Z,96470.34
2019-05-29T14:20:06.988Z,96463.73
2019-05-29T14:22:34.026Z,96468.36
2019-05-29T14:25:01.395Z,96468.84
2019-05-29T14:27:28.794Z,96466.86
2019-05-29T14:29:55.813Z,96470.65
2019-05-29T14:32:28.171Z,96471.23
2019-05-29T14:34:52.841Z,96479.05
2019-05-29T14:37:20.226Z,96476.72
2019-05-29T14:39:47.343Z,96479.47
2019-05-29T14:42:14.376Z,96488.67
2019-05-29T14:44:41.424Z,96476.83
2019-05-29T14:47:09.922Z,96485.24
2019-05-29T14:49:37.528Z,96482.25
2019-05-29T14:52:04.588Z,96492.19
2019-05-29T14:54:41.288Z,96490.44
2019-05-29T14:57:09.810Z,96495.98
2019-05-29T14:59:30.942Z,96496.01
2019-05-29T15:01:57.972Z,96496.05
2019-05-29T15:04:25.073Z,96500.44
2019-05-29T15:06:52.469Z,96501.70
2019-05-29T15:09:20.754Z,96502.03
2019-05-29T15:11:48.101Z,96512.05
2019-05-29T15:14:15.460Z,96508.79
2019-05-29T15:16:42.514Z,96513.59
2019-05-29T15:19:10.910Z,96515.59
2019-05-29T15:21:38.466Z,96514.86
2019-05-29T15:24:05.732Z,96518.34
2019-05-29T15:26:32.848Z,96519.16
2019-05-29T15:29:00.835Z,96524.95
2019-05-29T15:31:28.405Z,96518.69
2019-05-29T15:33:55.748Z,96516.92
2019-05-29T15:36:23.090Z,96518.61
2019-05-29T15:38:50.446Z,96528.73
2019-05-29T15:41:18.842Z,96523.80
2019-05-29T15:43:49.315Z,96526.82
2019-05-29T15:46:16.404Z,96528.84
2019-05-29T15:48:44.025Z,96528.84
2019-05-29T15:51:11.418Z,96531.66
2019-05-29T15:53:38.774Z,96531.34
2019-05-29T15:56:18.122Z,96533.03
2019-05-29T15:58:35.222Z,96528.90
2019-05-29T16:01:02.589Z,96530.03
2019-05-29T16:03:29.953Z,96533.81
2019-05-29T16:05:57.304Z,96532.55
2019-05-29T16:08:24.594Z,96536.13
2019-05-29T16:10:51.655Z,96537.36
2019-05-29T16:13:19.066Z,96539.35
2019-05-29T16:15:46.605Z,96536.72
2019-05-29T16:18:23.146Z,96543.61
2019-05-29T16:20:42.676Z,96544.75
2019-05-29T16:23:10.882Z,96544.56
2019-05-29T16:25:40.659Z,96548.33
2019-05-29T16:28:06.808Z,96551.64
2019-05-29T16:30:34.225Z,96548.87
2019-05-29T16:33:01.269Z,96546.74
2019-05-29T16:35:29.405Z,96550.82
2019-05-29T16:37:56.449Z,96552.91
2019-05-29T16:40:23.545Z,96553.50
2019-05-29T16:42:50.632Z,96555.72
2019-05-29T16:45:18.554Z,96558.41
2019-05-29T16:47:45.802Z,96563.17
2019-05-29T16:50:13.106Z,96560.17
2019-05-29T16:52:40.312Z,96560.71
2019-05-29T16:55:07.366Z,96561.84
2019-05-29T16:57:34.491Z,96566.47
2019-05-29T17:00:01.691Z,96570.34
2019-05-29T17:02:28.898Z,96566.62
2019-05-29T17:04:58.255Z,96569.19
2019-05-29T17:07:25.010Z,96571.55
2019-05-29T17:09:52.411Z,96573.59
2019-05-29T17:12:20.510Z,96568.69
2019-05-29T17:14:47.842Z,96572.54
2019-05-29T17:17:16.507Z,96580.02
2019-05-29T17:19:43.842Z,96579.14
2019-05-29T17:22:11.240Z,96586.17
2019-05-29T17:24:38.595Z,96582.98
2019-05-29T17:27:05.821Z,96584.19
2019-05-29T17:29:32.861Z,96583.75
2019-05-29T17:32:00.248Z,96589.22
2019-05-29T17:34:27.622Z,96581.69
2019-05-29T17:36:54.658Z,96592.08
2019-05-29T17:39:23.075Z,96590.68
2019-05-29T17:41:50.307Z,96595.00
2019-05-29T17:44:17.474Z,96595.02
2019-05-29T17:46:52.982Z,96593.24
2019-05-29T17:49:22.578Z,96594.58
2019-05-29T17:54:23.884Z,96601.69
2019-05-29T17:59:41.821Z,96598.94
2019-05-29T18:02:09.186Z,96603.56
2019-05-29T18:04:36.235Z,96607.69
2019-05-29T18:07:08.628Z,96612.34
2019-05-29T18:09:35.662Z,96610.58
2019-05-29T18:12:06.721Z,96618.16
2019-05-29T18:14:34.129Z,96621.95
2019-05-29T18:17:01.186Z,96620.00
2019-05-29T18:19:28.471Z,96625.27
2019-05-29T18:21:56.109Z,96630.69
2019-05-29T18:24:23.840Z,96632.01
2019-05-29T18:26:51.307Z,96627.92
2019-05-29T18:29:19.875Z,96636.12
2019-05-29T18:31:48.600Z,96636.48
2019-05-29T18:34:25.324Z,96633.22
2019-05-29T18:36:52.454Z,96639.45
2019-05-29T18:39:20.165Z,96633.89
2019-05-29T18:41:47.630Z,96628.95
2019-05-29T18:44:14.756Z,96633.72
2019-05-29T18:46:53.941Z,96626.84
2019-05-29T18:49:22.248Z,96636.34
2019-05-29T18:52:00.320Z,96638.64
2019-05-29T18:54:27.879Z,96636.55
2019-05-29T18:57:13.602Z,96637.20
2019-05-29T18:59:25.370Z,96642.44
2019-05-29T19:01:52.610Z,96640.31
2019-05-29T19:04:19.642Z,96647.67
2019-05-29T19:06:47.006Z,96652.41
2019-05-29T19:09:15.489Z,96660.25
2019-05-29T19:11:42.801Z,96662.03
2019-05-29T19:14:15.373Z,96662.70
2019-05-29T19:16:42.416Z,96661.22
2019-05-29T19:19:09.701Z,96660.22
2019-05-29T19:21:36.913Z,96668.38
2019-05-29T19:24:07.204Z,96671.78
2019-05-29T19:29:10.209Z,96674.17
2019-05-29T19:31:37.254Z,96686.03
2019-05-29T19:34:04.778Z,96685.14
2019-05-29T19:36:31.906Z,96697.53
2019-05-29T19:41:50.324Z,96692.34
2019-05-29T19:46:53.958Z,96708.52
2019-05-29T19:51:52.934Z,96713.14
2019-05-29T19:54:19.985Z,96717.00
2019-05-29T19:56:47.160Z,96722.20
2019-05-29T19:59:14.213Z,96725.44
2019-05-29T20:01:44.815Z,96725.25
2019-05-29T20:04:12.168Z,96733.91
2019-05-29T20:06:52.802Z,96729.84
2019-05-29T20:09:20.211Z,96745.22
2019-05-29T20:11:50.266Z,96741.15
2019-05-29T20:14:17.691Z,96749.50
2019-05-29T20:16:45.246Z,96749.97
2019-05-29T20:19:12.597Z,96755.65
2019-05-29T20:21:39.669Z,96760.36
2019-05-29T20:24:12.412Z,96768.30
2019-05-29T20:26:39.476Z,96763.82
2019-05-29T20:29:06.834Z,96767.16
2019-05-29T20:31:34.549Z,96771.44
2019-05-29T20:34:01.848Z,96773.79
2019-05-29T20:36:28.897Z,96774.38
2019-05-29T20:38:57.004Z,96776.56
2019-05-29T20:41:24.416Z,96771.25
2019-05-29T20:43:51.767Z,96781.27
2019-05-29T20:46:19.120Z,96781.22
2019-05-29T20:48:47.463Z,96783.49
2019-05-29T20:51:14.854Z,96782.97
2019-05-29T20:53:42.209Z,96788.62
2019-05-29T20:58:42.636Z,96790.02
2019-05-29T21:03:51.800Z,96796.20
2019-05-29T21:08:54.630Z,96800.19
2019-05-29T21:11:26.983Z,96797.05
2019-05-29T21:13:54.035Z,96803.86
2019-05-29T21:16:21.380Z,96801.39
2019-05-29T21:18:48.415Z,96808.88
2019-05-29T21:21:15.463Z,96805.59
2019-05-29T21:23:42.831Z,96809.30
2019-05-29T21:26:09.884Z,96810.75
2019-05-29T21:28:43.592Z,96807.46
2019-05-29T21:31:08.375Z,96814.46
2019-05-29T21:33:35.832Z,96806.92
2019-05-29T21:36:07.917Z,96808.17
2019-05-29T21:38:36.038Z,96810.10
2019-05-29T21:41:03.257Z,96810.72
2019-05-29T21:43:30.285Z,96806.95
2019-05-29T21:45:57.632Z,96804.28
2019-05-29T21:48:24.980Z,96807.03
2019-05-29T21:50:52.352Z,96810.75
2019-05-29T21:53:19.383Z,96809.87
2019-05-29T21:55:47.724Z,96811.45
2019-05-29T21:58:15.220Z,96814.68
2019-05-29T22:00:42.446Z,96816.13
2019-05-29T22:03:11.176Z,96818.73
2019-05-29T22:05:38.602Z,96822.78
2019-05-29T22:08:05.641Z,96824.16
2019-05-29T22:10:33.021Z,96815.31
2019-05-29T22:13:00.699Z,96816.62
2019-05-29T22:15:27.805Z,96823.08
2019-05-29T22:17:55.210Z,96825.95
2019-05-29T22:20:22.543Z,96829.05
2019-05-29T22:22:51.056Z,96827.53
2019-05-29T22:25:18.501Z,96832.41
2019-05-29T22:27:45.845Z,96832.13
2019-05-29T22:30:12.893Z,96825.13
2019-05-29T22:32:39.972Z,96831.09
2019-05-29T22:35:07.287Z,96831.02
2019-05-29T22:37:34.584Z,96831.16
2019-05-29T22:40:02.116Z,96824.86
2019-05-29T22:42:29.234Z,96829.87
2019-05-29T22:44:57.691Z,96830.63
2019-05-29T22:47:25.011Z,96828.58
2019-05-29T22:49:52.051Z,96827.06
2019-05-29T22:52:19.398Z,96825.34
2019-05-29T22:54:46.420Z,96827.95
2019-05-29T22:57:13.476Z,96821.89
2019-05-29T22:59:40.830Z,96824.42
2019-05-29T23:02:07.813Z,96822.50
2019-05-29T23:04:34.849Z,96823.05
2019-05-29T23:07:02.602Z,96827.30
2019-05-29T23:09:29.957Z,96822.77
2019-05-29T23:11:58.236Z,96825.63
2019-05-29T23:14:25.591Z,96817.09
2019-05-29T23:16:52.641Z,96815.71
2019-05-29T23:19:19.990Z,96821.86
2019-05-29T23:21:47.347Z,96818.48
2019-05-29T23:24:14.382Z,96815.14
2019-05-29T23:26:41.691Z,96818.32
2019-05-29T23:29:09.006Z,96812.77
2019-05-29T23:31:36.362Z,96816.16
2019-05-29T23:34:03.648Z,96818.69
2019-05-29T23:36:31.748Z,96809.27
2019-05-29T23:38:59.324Z,96808.88
2019-05-29T23:41:26.621Z,96804.23
2019-05-29T23:43:55.314Z,96805.56
2019-05-29T23:46:22.842Z,96808.54
2019-05-29T23:48:49.893Z,96806.41
2019-05-29T23:51:17.262Z,96807.23
2019-05-29T23:53:44.601Z,96812.59
2019-05-29T23:56:11.984Z,96808.82
2019-05-29T23:58:39.025Z,96816.70
